• Join FlightAware (Why Join?)
  • Login
  • US Flag 
04:32AM EDT


 

Airport Tracker/Info


-or-


 

Live Flight TrackerFlight Track Log ✈ N317FL ✈ 23-Apr-2013 ✈ KCHA - KPWK

Flight Track Log - Related Links

Times and Time Zones

All times are in EDT time to prevent confusion due to time zone crossing. See the N317FL flight status page for this flight to view local times or setup timezone preferences in your user account.

Time Position Orientation Groundspeed Altitude Reporting Facility
EDT Latitude Longitude Course Direction KTS MPH feet Rate Location/Type
02:14PM 35.0563 -85.3041 335° Northwest 267 307 8,900  Level FlightAware ADS-B
02:15PM 35.0732 -85.3140 334° Northwest 268 308 10,000 4,680 Climbing FlightAware ADS-B
02:15PM 35.0871 -85.3223 334° Northwest 260 299 11,100 4,740 Climbing FlightAware ADS-B
02:15PM 35.1189 -85.3416 334° Northwest 256 295 13,400 3,900 Climbing FlightAware ADS-B
02:16PM 35.1522 -85.3622 333° Northwest 273 314 15,000 3,360 Climbing FlightAware ADS-B
02:16PM 35.1678 -85.3721 333° Northwest 277 319 15,900 3,300 Climbing FlightAware ADS-B
02:17PM 35.2049 -85.3940 334° Northwest 291 335 17,500 3,240 Climbing FlightAware ADS-B
02:17PM 35.2429 -85.4164 334° Northwest 302 348 19,200 3,420 Climbing FlightAware ADS-B
02:18PM 35.2817 -85.4394 334° Northwest 304 350 21,000 3,720 Climbing FlightAware ADS-B
02:18PM 35.3254 -85.4653 334° Northwest 292 336 23,300 3,900 Climbing FlightAware ADS-B
02:19PM 35.3618 -85.4870 334° Northwest 276 318 25,300 3,420 Climbing FlightAware ADS-B
02:19PM 35.3989 -85.5092 334° Northwest 277 319 26,900 2,220 Climbing FlightAware ADS-B
02:20PM 35.4750 -85.5550 334° Northwest 310 357 29,000 1,080 Climbing FlightAware
02:21PM 35.5270 -85.5880 333° Northwest 310 357 29,000 1,920 Level FlightAware
02:22PM 35.5950 -85.6270 335° Northwest 31,600 3,540 Climbing FlightAware
02:22PM 35.6195 -85.6417 334° Northwest 352 405 32,200 2,400 Climbing FlightAware ADS-B
02:23PM 35.6645 -85.6686 334° Northwest 353 406 33,200 1,920 Climbing FlightAware ADS-B
02:23PM 35.7093 -85.6955 334° Northwest 352 405 34,200 2,160 Climbing FlightAware ADS-B
02:24PM 35.7536 -85.7221 334° Northwest 345 397 35,400 2,220 Climbing FlightAware ADS-B
02:24PM 35.7964 -85.7480 334° Northwest 338 389 36,500 2,040 Climbing FlightAware ADS-B
02:25PM 35.8391 -85.7737 334° Northwest 333 383 37,500 1,920 Climbing FlightAware ADS-B
02:25PM 35.8846 -85.8013 334° Northwest 326 375 38,600 1,800 Climbing FlightAware ADS-B
02:26PM 35.9281 -85.8277 334° Northwest 323 372 39,500 1,560 Climbing FlightAware ADS-B
02:26PM 35.9722 -85.8545 334° Northwest 319 367 40,300 1,500 Climbing FlightAware ADS-B
02:27PM 36.0124 -85.8789 334° Northwest 314 361 41,100 1,200 Climbing FlightAware ADS-B
02:27PM 36.0526 -85.9034 334° Northwest 316 364 41,600 840 Climbing FlightAware ADS-B
02:28PM 36.0927 -85.9279 334° Northwest 321 369 42,000 780 Climbing FlightAware ADS-B
02:28PM 36.1133 -85.9404 334° Northwest 325 374 42,200 720 Climbing FlightAware ADS-B
02:29PM 36.1565 -85.9669 334° Northwest 330 380 42,600 660 Climbing FlightAware ADS-B
02:29PM 36.1981 -85.9923 334° Northwest 335 386 42,900 660 Climbing FlightAware ADS-B
02:30PM 36.2433 -86.0199 334° Northwest 338 389 43,300 660 Climbing FlightAware ADS-B
02:30PM 36.3010 -86.0550 334° Northwest 341 392 43,800 600 Climbing FlightAware
02:31PM 36.3580 -86.0900 334° Northwest 344 396 44,200 660 Climbing FlightAware
02:32PM 36.4150 -86.1250 334° Northwest 346 398 44,700 540 Climbing FlightAware
02:32PM 36.4810 -86.1660 333° Northwest 351 404 45,000 240 Climbing FlightAware
02:33PM 36.5226 -86.1914 334° Northwest 353 406 45,000  Level FlightAware ADS-B
02:34PM 36.6040 -86.2420 333° Northwest 355 409 45,000  Level FlightAware
02:34PM 36.6650 -86.2790 334° Northwest 357 411 45,000  Level FlightAware
02:35PM 36.7209 -86.3141 333° Northwest 360 414 45,000  Level FlightAware ADS-B
02:36PM 36.7688 -86.3438 334° Northwest 361 415 45,000  Level FlightAware ADS-B
02:36PM 36.8314 -86.3828 333° Northwest 362 417 45,000  Level FlightAware ADS-B
02:37PM 36.8768 -86.4110 334° Northwest 364 419 45,000  Level FlightAware ADS-B
02:37PM 36.9318 -86.4438 335° Northwest 365 420 45,000  Level FlightAware ADS-B
02:38PM 37.0120 -86.4680 346° North 375 432 45,000  Level FlightAware
02:39PM 37.0790 -86.4890 346° North 377 434 45,000  Level FlightAware
02:40PM 37.1480 -86.5100 346° North 379 436 45,000  Level FlightAware
02:40PM 37.2145 -86.5305 346° North 381 438 45,000  Level FlightAware ADS-B
02:41PM 37.2968 -86.5558 346° North 382 440 45,000  Level FlightAware ADS-B
02:42PM 37.3650 -86.5610 357° North 394 453 45,000  Level FlightAware
02:42PM 37.4470 -86.5640 358° North 394 453 45,000  Level FlightAware
02:43PM 37.5220 -86.5690 357° North 395 455 45,000  Level FlightAware
02:44PM 37.6020 -86.5740 357° North 396 456 45,000  Level FlightAware
02:44PM 37.6740 -86.5780 357° North 396 456 45,000  Level FlightAware
02:45PM 37.7600 -86.5830 357° North 396 456 45,000  Level FlightAware
02:46PM 37.8330 -86.5870 358° North 398 458 45,000 -600 Level FlightAware
02:47PM 37.9080 -86.5920 357° North 414 476 44,200 -1,200 Descending FlightAware
02:47PM 37.9930 -86.5970 357° North 415 478 43,300 -1,200 Descending FlightAware
02:48PM 38.0700 -86.6020 357° North 394 453 42,500 -1,200 Descending FlightAware
02:49PM 38.1420 -86.6060 357° North 377 434 41,700 -1,200 Descending FlightAware
02:49PM 38.2160 -86.6100 358° North 357 411 40,800 -1,200 Descending FlightAware
02:50PM 38.2800 -86.6140 357° North 344 396 40,000 -1,440 Descending FlightAware
02:51PM 38.3500 -86.6190 357° North 341 392 38,800 -1,860 Descending FlightAware
02:51PM 38.4160 -86.6230 357° North 352 405 37,400 -2,100 Descending FlightAware
02:52PM 38.4910 -86.6280 357° North 363 418 35,900 -1,980 Descending FlightAware
02:53PM 38.5600 -86.6320 357° North 369 425 34,600 -1,980 Descending FlightAware
02:54PM 38.6300 -86.6360 357° North 374 430 33,300 -1,980 Descending FlightAware
02:54PM 38.6970 -86.6410 357° North 381 438 32,000 -1,980 Descending FlightAware
02:55PM 38.7760 -86.6450 358° North 382 440 30,500 -1,800 Descending FlightAware
02:56PM 38.8470 -86.6500 357° North 377 434 29,500 -1,080 Descending FlightAware
02:56PM 38.9270 -86.6550 357° North 384 442 29,000 -360 Descending FlightAware
02:57PM 38.9980 -86.6590 357° North 389 448 29,000  Level FlightAware
02:58PM 39.0740 -86.6640 357° North 392 451 29,000  Level FlightAware
02:58PM 39.1520 -86.6690 357° North 396 456 29,000  Level FlightAware
02:59PM 39.2290 -86.6740 357° North 398 458 29,000  Level FlightAware
03:00PM 39.3100 -86.6790 357° North 399 459 29,000  Level FlightAware
03:01PM 39.3850 -86.6840 357° North 400 460 29,000  Level FlightAware
03:01PM 39.4580 -86.6880 358° North 400 460 29,000 -180 Level FlightAware
03:02PM 39.5390 -86.6930 357° North 402 463 28,800 -660 Descending FlightAware
03:03PM 39.6050 -86.7100 349° North 390 449 28,100 -1,200 Descending FlightAware
03:03PM 39.6930 -86.7430 344° North 391 450 27,100 -1,200 Descending FlightAware
03:04PM 39.7610 -86.7680 344° North 384 442 26,400 -840 Descending FlightAware
03:05PM 39.8290 -86.7930 344° North 373 429 26,000 -300 Descending FlightAware
03:05PM 39.8930 -86.8190 343° North 373 429 26,000  Level FlightAware
03:06PM 39.9640 -86.8440 345° North 364 419 26,000  Level FlightAware
03:07PM 40.0400 -86.8730 344° North 364 419 26,000 -300 Level FlightAware
03:08PM 40.1050 -86.8970 344° North 373 429 25,600 -900 Descending FlightAware
03:08PM 40.1740 -86.9240 343° North 380 437 24,800 -1,080 Descending FlightAware
03:09PM 40.2730 -86.9330 356° North 396 456 23,800 -1,080 Descending FlightAware
03:10PM 40.3510 -86.9230 North 395 455 23,000 -1,500 Descending FlightAware
03:11PM 40.4460 -86.9350 355° North 376 433 21,500 -1,740 Descending FlightAware
03:12PM 40.5240 -86.9580 347° North 363 418 20,100 -1,800 Descending FlightAware
03:12PM 40.5870 -86.9760 348° North 350 403 19,000 -1,680 Descending FlightAware
03:13PM 40.6490 -86.9950 347° North 341 392 17,900 -1,740 Descending FlightAware
03:14PM 40.7200 -87.0170 347° North 334 384 16,600 -1,800 Descending FlightAware
03:14PM 40.7710 -87.0320 347° North 329 379 15,500 -1,860 Descending FlightAware
03:15PM 40.8300 -87.0500 347° North 328 377 14,300 -1,920 Descending FlightAware
03:16PM 40.9040 -87.0730 347° North 330 380 12,700 -1,980 Descending FlightAware
03:16PM 40.9660 -87.0920 347° North 329 379 11,400 -1,860 Descending FlightAware
03:17PM 41.0290 -87.1160 344° North 308 354 10,100 -1,920 Descending FlightAware
03:17PM 41.0470 -87.1320 326° Northwest 305 351 9,500 -1,980 Descending FlightAware
03:18PM 41.0740 -87.1550 327° Northwest 302 348 8,800 -1,980 Descending FlightAware
03:18PM 41.0940 -87.1710 329° Northwest 302 348 8,200 -2,100 Descending FlightAware
03:18PM 41.1250 -87.1980 327° Northwest 300 345 7,400 -1,860 Descending FlightAware
03:19PM 41.1580 -87.2270 327° Northwest 295 339 6,500 -1,740 Descending FlightAware
03:19PM 41.1960 -87.2490 336° Northwest 302 348 5,700 -1,320 Descending FlightAware
03:20PM 41.2380 -87.2520 357° North 287 330 5,200 -1,020 Descending FlightAware
03:20PM 41.2770 -87.2560 356° North 276 318 4,700 -1,020 Descending FlightAware
03:21PM 41.3080 -87.2590 356° North 276 318 4,300 -780 Descending FlightAware
03:21PM 41.3450 -87.2620 357° North 261 300 4,000 -300 Descending FlightAware
03:22PM 41.3810 -87.2640 358° North 263 303 4,000  Level FlightAware
03:22PM 41.4130 -87.2670 356° North 269 310 4,000  Level FlightAware
03:23PM 41.4290 -87.2680 357° North 272 313 4,000  Level FlightAware
03:23PM 41.4690 -87.2700 358° North 277 319 4,000  Level FlightAware
03:23PM 41.5010 -87.2720 357° North 277 319 4,000  Level FlightAware
03:24PM 41.5400 -87.2750 357° North 278 320 4,000  Level FlightAware
03:24PM 41.5720 -87.2810 352° North 266 306 4,000  Level FlightAware
03:25PM 41.6060 -87.3000 337° Northwest 265 305 4,000  Level FlightAware
03:25PM 41.6220 -87.3080 340° North 264 304 4,000 -480 Level FlightAware
03:26PM 41.6620 -87.3060 North 239 275 3,600 -780 Descending FlightAware
03:26PM 41.7000 -87.3080 358° North 216 249 3,100 -600 Descending FlightAware
03:27PM 41.7240 -87.3110 355° North 212 244 3,000 -180 Descending FlightAware
03:27PM 41.7390 -87.3140 352° North 207 238 3,000  Level FlightAware
03:27PM 41.7620 -87.3180 353° North 205 236 3,000  Level FlightAware
03:28PM 41.7910 -87.3230 353° North 209 241 3,000  Level FlightAware